Dorothy Ann — WDE8761 — position and weather

sailwx.info

Track history (hours):
 
Tides and Currents Weather Stations Pressure Air Temp Water Temp Dewpoint Dewpoint Depression Visibility Wind Speed Wind Dir Waves Ship Positions

Dorothy Ann

Owner: THE INTERLAKE STEAMSHIP COMPANY, Middleburg Heights, OH. More information available from US FCC via Universal Licensing System and Coast Guard Vessel Documentation Center.

Last reported at 2015-May-30 18:00 UTC. Time now 2015-May-30 18:36 UTC.
Position N 44°48' W 083°00'.

Length 215 m; draft 5.9 m.

Type: Cargo ship. MMSI: 367409260.

Wind from 330 at 24 knots

Barometer 1017.7 mb
Air temperature 8.4 ° C
Water temperature 42.6 ° C

Date/timePositionNaut miles runAvg speedWind from/ knotsBaromVisibWave heightAir tempDewpointWater temp
2015-May-30 18:00N 44°48' W 083°00'7 7.4 330 / 241017.7 8.4 42.6
2015-May-30 17:00N 44°42' W 082°54'1312.7 340 / 271016.4 10.2 42.6
2015-May-30 16:00N 44°30' W 082°48'6 6.0 340 / 181016.4 10.3 42.6
2015-May-30 15:00N 44°24' W 082°48'1312.7 020 / 141015.4 10.4 42.6
2015-May-30 14:00N 44°12' W 082°42'7 7.4 040 / 121014.7 12.7 42.6
2015-May-30 13:00N 44°06' W 082°36'1212.0 240 / 111014.0 18.9 42.6
2015-May-30 12:00N 43°54' W 082°36'1312.8 230 / 111014.0 19.7 42.6
2015-May-30 11:00N 43°42' W 082°30'1212.0 200 / 141013.7 20.4 42.6
2015-May-30 10:00N 43°30' W 082°30'6 6.0 210 / 101013.3 19.7 42.6
2015-May-30 09:00N 43°24' W 082°30'1312.8 200 / 151013.3 20.8 42.6
2015-May-30 08:00N 43°12' W 082°24'1212.0 210 / 161013.7 20.9 42.6
2015-May-30 07:00N 43°00' W 082°24'7 7.4 210 / 121014.3 21.8 42.6
2015-May-30 06:00N 42°54' W 082°30'0 0.0 180 / 101014.7 23.7 42.6
2015-May-30 05:00N 42°54' W 082°30'0 0.0 190 / 91014.7 19.2 42.6
2015-May-30 04:00N 42°54' W 082°30'0 0.0 180 / 111015.4 20.8 42.6
2015-May-30 03:00N 42°54' W 082°30'0 0.0 190 / 101016.0 21.4 42.6
2015-May-30 02:00N 42°54' W 082°30'12 6.0 180 / 81015.7 25.4 42.6
2015-May-30 00:00N 42°42' W 082°30'0 0.0 160 / 101016.4 24.5 42.6
2015-May-29 23:00N 42°42' W 082°30'0 0.0 160 / 101016.4 24.7 42.6
2015-May-29 22:00N 42°42' W 082°30'6 6.0 180 / 141017.1 24.7 42.6
2015-May-29 21:00N 42°36' W 082°30'4 4.4 200 / 81017.7 24.7 42.6
2015-May-29 20:00N 42°36' W 082°36'18 8.9 150 / 121018.2 22.3 42.6
2015-May-29 18:00N 42°24' W 082°54'7 7.5 220 / 141020.3 21.8 42.6
2015-May-29 17:00N 42°18' W 083°00'4 4.4 210 / 131020.6 22.9 42.6
2015-May-29 16:00N 42°18' W 083°06'1212.0 170 / 101020.9 20.4 42.6
2015-May-29 15:00N 42°06' W 083°06'6 6.0 190 / 101020.9 19.3 42.6
2015-May-29 14:00N 42°00' W 083°06'11 5.4 140 / 101020.8 18.6 42.6
2015-May-29 12:00N 41°54' W 082°54'9 8.9 130 / 91021.2 18.1 42.6
2015-May-29 11:00N 41°54' W 082°42'1110.8 130 / 111021.5 17.8 42.6
2015-May-29 10:00N 41°48' W 082°30'6 6.0 120 / 121021.5 17.8 42.6
2015-May-29 09:00N 41°42' W 082°30'7 7.5 120 / 141021.5 17.5 42.6
2015-May-29 08:00N 41°36' W 082°36'7 7.5 110 / 111021.5 17.4 42.6
2015-May-29 07:00N 41°30' W 082°42'0 0.0 120 / 91021.5 18.0 42.6
2015-May-29 06:00N 41°30' W 082°42'0 0.0 120 / 91021.8 17.5 42.6
2015-May-29 05:00N 41°30' W 082°42'0 0.0 120 / 81022.2 17.0 42.6
2015-May-29 04:00N 41°30' W 082°42'0 0.0 120 / 101022.9 17.1 42.6
2015-May-29 03:00N 41°30' W 082°42'0 0.0 110 / 101023.2 17.5 42.6
2015-May-29 02:00N 41°30' W 082°42'0 0.0 120 / 61023.2 16.9 42.6
2015-May-29 01:00N 41°30' W 082°42'0 0.0 100 / 61023.2 16.8 42.6
2015-May-29 00:00N 41°30' W 082°42'0 0.0 090 / 111023.2 16.9 42.6
2015-May-28 23:00N 41°30' W 082°42'0 0.0 080 / 91023.2 17.2 42.6
2015-May-28 22:00N 41°30' W 082°42'0 0.0 090 / 91023.2 17.2 42.6
2015-May-28 21:00N 41°30' W 082°42'0 0.0 080 / 101023.5 17.2 42.6
2015-May-28 20:00N 41°30' W 082°42'0 0.0 080 / 81023.9 17.2 42.6
2015-May-28 18:00N 41°30' W 082°42'6 6.0 080 / 101025.2 17.0 42.6
2015-May-28 17:00N 41°36' W 082°42'9 9.0 060 / 111025.6 19.1 42.6
2015-May-28 16:00N 41°36' W 082°30'9 9.0 090 / 111025.9 17.7 42.6
2015-May-28 15:00N 41°36' W 082°18'9 9.0 110 / 101024.9 16.8 42.6
2015-May-28 14:00N 41°36' W 082°06'1313.5 100 / 101024.5 16.2 42.6
2015-May-28 13:00N 41°36' W 081°48'7 7.5 040 / 91024.5 15.5 42.6
2015-May-28 12:00N 41°30' W 081°42'0 0.0 030 / 51023.9 17.0 42.6
2015-May-28 11:00N 41°30' W 081°42'0 0.0 080 / 41023.2 17.6 42.6
2015-May-28 10:00N 41°30' W 081°42'0 0.0 020 / 31022.5 17.6 42.6
2015-May-28 09:00N 41°30' W 081°42'0 0.0 330 / 31021.8 17.9 42.6
2015-May-28 08:00N 41°30' W 081°42'0 0.0 310 / 41021.2 19.8 42.6
2015-May-28 07:00N 41°30' W 081°42'0 0.0 260 / 51021.2 19.0 42.6
2015-May-28 06:00N 41°30' W 081°42'0 0.0 050 / 21020.1 19.3 42.6
2015-May-28 05:00N 41°30' W 081°42'0 0.0 010 / 11019.8 19.0 42.6
2015-May-28 04:00N 41°30' W 081°42'0 0.0 140 / 31018.8 18.4 42.6
2015-May-28 03:00N 41°30' W 081°42'0 0.0 190 / 71018.5 19.0 42.6
2015-May-28 02:00N 41°30' W 081°42'0 0.0 220 / 41018.1 19.2 42.6
2015-May-28 01:00N 41°30' W 081°42'0 0.0 170 / 51018.1 18.7 42.6
2015-May-28 00:00N 41°30' W 081°42'0 0.0 310 / 101017.8 19.0 42.6
2015-May-27 23:00N 41°30' W 081°42'0 0.0 160 / 61017.1 20.0 42.6
2015-May-27 21:00N 41°30' W 081°42'0 0.0 210 / 201016.1 27.7 42.6
2015-May-27 20:00N 41°30' W 081°42'0 0.0 190 / 181016.1 27.5 42.6
2015-May-27 19:00N 41°30' W 081°42'0 0.0 200 / 151016.4 27.5 42.6
2015-May-27 18:00N 41°30' W 081°42'0 0.0 200 / 161016.4 26.3 42.6
2015-May-27 17:00N 41°30' W 081°42'0 0.0 190 / 61017.8 26.9 42.6
2015-May-27 16:00N 41°30' W 081°42'0 0.0 220 / 101018.1 24.9 42.6
2015-May-27 15:00N 41°30' W 081°42'0 0.0 180 / 101017.8 25.5 42.6
2015-May-27 14:00N 41°30' W 081°42'0 0.0 190 / 121017.8 24.0 42.6
2015-May-27 13:00N 41°30' W 081°42'0 0.0 220 / 91018.1 22.4 42.6
2015-May-27 12:00N 41°30' W 081°42'0 0.0 200 / 81017.8 21.5 42.6
2015-May-27 11:00N 41°30' W 081°42'0 0.0 190 / 81017.1 21.0 42.6
2015-May-27 10:00N 41°30' W 081°42'0 0.0 180 / 51016.4 20.8 42.6
2015-May-27 09:00N 41°30' W 081°42'0 0.0 210 / 71016.1 21.3 42.6
2015-May-27 08:00N 41°30' W 081°42'0 0.0 180 / 71015.7 21.3 42.6
2015-May-27 07:00N 41°30' W 081°42'0 0.0 120 / 51016.1 21.1 42.6
2015-May-27 06:00N 41°30' W 081°42'4 4.5 190 / 141015.410.8 0.521.0 42.6
2015-May-27 05:00N 41°30' W 081°48'1110.8 190 / 191015.1 20.5 42.6
2015-May-27 04:00N 41°36' W 082°00'9 9.0 190 / 221015.1 20.5 42.6
2015-May-27 03:00N 41°36' W 082°12'9 9.0 190 / 221014.4 20.1 42.6
2015-May-27 02:00N 41°36' W 082°24'9 9.0 180 / 211014.4 19.6 42.6
2015-May-27 01:00N 41°36' W 082°36'7 7.5 200 / 231014.0 20.3 42.6
2015-May-27 00:00N 41°30' W 082°42'0 0.0 230 / 101014.4 20.8 42.6
2015-May-26 23:00N 41°30' W 082°42'0 0.0 270 / 141014.0 21.3 42.6
2015-May-26 22:00N 41°30' W 082°42'0 0.0 190 / 161013.0 29.7 42.6
2015-May-26 21:00N 41°30' W 082°42'0 0.0 150 / 111013.4 28.8 42.6
2015-May-26 20:00N 41°30' W 082°42'0 0.0 160 / 101014.4 28.2 42.6
2015-May-26 19:00N 41°30' W 082°42'0 0.0 200 / 101015.7 28.4 42.6
2015-May-26 17:00N 41°30' W 082°42'0 0.0 230 / 101017.8 26.6 42.6
2015-May-26 16:00N 41°30' W 082°42'0 0.0 210 / 61018.5 25.6 42.6
2015-May-26 15:00N 41°30' W 082°42'0 0.0 240 / 81018.8 24.2 42.6
2015-May-26 14:00N 41°30' W 082°42'0 0.0 200 / 101019.1 22.9 42.6
2015-May-26 13:00N 41°30' W 082°42'0 0.0 200 / 81019.1 23.0 42.6
2015-May-26 12:00N 41°30' W 082°42'6 6.0 200 / 61019.1 20.9 42.6
2015-May-26 11:00N 41°36' W 082°42'9 9.0 220 / 111019.1 18.7 42.6
2015-May-26 10:00N 41°36' W 082°30'1313.5 190 / 121018.5 19.3 42.6
2015-May-26 09:00N 41°36' W 082°12'9 9.0 190 / 111018.1 20.4 42.6
2015-May-26 08:00N 41°36' W 082°00'9 9.0 200 / 131018.1 20.9 42.6
2015-May-26 07:00N 41°36' W 081°48'7 7.5 220 / 161018.5 21.1 42.6
2015-May-26 06:00N 41°30' W 081°42'0 0.0 200 / 101018.8 22.7 42.6
2015-May-26 05:00N 41°30' W 081°42'0 0.0 080 / 21019.1 23.7 42.6
2015-May-26 04:00N 41°30' W 081°42'0 0.0 190 / 51018.5 24.0 42.6
2015-May-26 03:00N 41°30' W 081°42'0 0.0 220 / 51018.5 24.6 42.6
2015-May-26 02:00N 41°30' W 081°42'0 0.0 220 / 61017.8 25.8 42.6
2015-May-26 00:00N 41°30' W 081°42'0 0.0 240 / 121017.1 27.6 42.6
2015-May-25 23:00N 41°30' W 081°42'0 0.0 260 / 121016.8 27.4 42.6
2015-May-25 22:00N 41°30' W 081°42'0 0.0 200 / 201016.4 27.8 42.6
2015-May-25 21:00N 41°30' W 081°42'0 0.0 230 / 131017.1 27.2 42.6
2015-May-25 20:00N 41°30' W 081°42'0 0.0 220 / 121017.4 27.4 42.6
2015-May-25 19:00N 41°30' W 081°42'0 0.0 230 / 81017.4 27.9 42.6
2015-May-25 18:00N 41°30' W 081°42'0 0.0 230 / 121017.8 27.4 42.6
2015-May-25 17:00N 41°30' W 081°42'0 0.0 220 / 141018.1 27.0 42.6
2015-May-25 16:00N 41°30' W 081°42'0 0.0 190 / 151018.1 24.5 42.6
2015-May-25 15:00N 41°30' W 081°42'0 0.0 210 / 121018.8 24.4 42.6
2015-May-25 14:00N 41°30' W 081°42'0 0.0 200 / 121019.1 25.0 42.6
2015-May-25 13:00N 41°30' W 081°42'0 0.0 200 / 111019.5 22.9 42.6
2015-May-25 12:00N 41°30' W 081°42'0 0.0 180 / 131019.1 21.8 42.6
2015-May-25 11:00N 41°30' W 081°42'0 0.0 140 / 101018.8 19.8 42.6
2015-May-25 10:00N 41°30' W 081°42'0 0.0 170 / 91018.8 19.3 42.6
2015-May-25 09:00N 41°30' W 081°42'0 0.0 160 / 101018.5 19.6 42.6
2015-May-25 08:00N 41°30' W 081°42'0 0.0 150 / 111018.8 20.1 42.6
2015-May-25 07:00N 41°30' W 081°42'0 0.0 150 / 31019.1 19.9 42.6
2015-May-25 06:00N 41°30' W 081°42'0 0.0 140 / 31019.8 21.0 42.6
2015-May-25 05:00N 41°30' W 081°42'0 0.0 130 / 71020.5 20.7 42.6
2015-May-25 04:00N 41°30' W 081°42'0 0.0 160 / 71020.5 22.3 42.6
2015-May-25 03:00N 41°30' W 081°42'0 0.0 150 / 51020.8 22.0 42.6
2015-May-25 02:00N 41°30' W 081°42'0 0.0 160 / 51020.8 23.2 42.6
2015-May-25 01:00N 41°30' W 081°42'0 0.0 140 / 61020.5 24.6 42.6
2015-May-25 00:00N 41°30' W 081°42'0 0.0 130 / 61021.2 25.7 42.6
2015-May-24 23:00N 41°30' W 081°42'0 0.0 120 / 61021.5 26.0 42.6
2015-May-24 22:00N 41°30' W 081°42'0 0.0 140 / 51022.2 26.1 42.6
2015-May-24 21:00N 41°30' W 081°42'0 0.0 160 / 91022.5 26.5 42.6
2015-May-24 20:00N 41°30' W 081°42'0 0.0 190 / 91022.9 27.3 42.6
2015-May-24 19:00N 41°30' W 081°42'0 0.0 220 / 61023.5 27.2 42.6
2015-May-24 18:00N 41°30' W 081°42'0 0.0 200 / 81024.2 27.2 42.6
2015-May-24 17:00N 41°30' W 081°42'0 0.0 180 / 81024.9 26.2 42.6
2015-May-24 16:00N 41°30' W 081°42'0 0.0 240 / 71025.2 25.6 42.6
2015-May-24 15:00N 41°30' W 081°42'0 0.0 210 / 101025.6 24.2 42.6
2015-May-24 14:00N 41°30' W 081°42'0 0.0 220 / 101025.9 23.2 42.6
2015-May-24 13:00N 41°30' W 081°42'0 0.0 190 / 91025.9 20.8 42.6
2015-May-24 12:00N 41°30' W 081°42'0 0.0 140 / 91026.2 16.6 42.6
2015-May-24 11:00N 41°30' W 081°42'0 0.0 150 / 111026.2 14.6 42.6
2015-May-24 10:00N 41°30' W 081°42'0 0.0 140 / 91025.9 14.4 42.6
2015-May-24 09:00N 41°30' W 081°42'0 0.0 150 / 101025.2 14.5 42.6
2015-May-24 08:00N 41°30' W 081°42'0 0.0 160 / 91025.2 14.8 42.6
2015-May-24 06:00N 41°30' W 081°42'1110.8 150 / 131025.2 16.0 42.6
2015-May-24 05:00N 41°36' W 081°54'1110.8 170 / 121025.6 18.0 42.6
2015-May-24 04:00N 41°42' W 082°06'34 8.4 140 / 111025.6 16.1 42.6
2015-May-24 00:00N 41°54' W 082°48'9 8.9 130 / 121025.2 17.0 42.6
2015-May-23 23:00N 41°54' W 083°00'7 7.5 130 / 151025.2 18.8 42.6
2015-May-23 22:00N 42°00' W 083°06'1212.0 130 / 141025.9 16.0 42.6
2015-May-23 21:00N 42°12' W 083°06'6 6.0 180 / 131026.4 20.4 42.6
2015-May-23 20:00N 42°18' W 083°06'0 0.0 210 / 91027.4 20.4 42.6
2015-May-23 19:00N 42°18' W 083°06'0 0.0 200 / 111027.7 19.5 42.6
2015-May-23 18:00N 42°18' W 083°06'0 0.0 220 / 91028.0 19.5 42.6
2015-May-23 17:00N 42°18' W 083°06'0 0.0 220 / 121028.7 18.1 42.6
2015-May-23 16:00N 42°18' W 083°06'1110.7 200 / 61029.4 17.6 42.6
2015-May-23 15:00N 42°24' W 082°54'7 7.5 250 / 91029.4 16.5 42.6
2015-May-23 14:00N 42°30' W 082°48'18 8.9 200 / 61029.7 11.0 42.6
2015-May-23 12:00N 42°42' W 082°30'1212.0 180 / 61029.6 7.6 42.6
2015-May-23 11:00N 42°54' W 082°30'7 7.4 180 / 51028.9 4.4 42.6
2015-May-23 10:00N 43°00' W 082°24'1212.0 200 / 81028.2 5.1 42.6
2015-May-23 09:00N 43°12' W 082°24'1212.0 210 / 71027.9 7.3 42.6
2015-May-23 08:00N 43°24' W 082°24'74 9.3 210 / 41027.2 6.4 42.6
2015-May-23 00:00N 44°36' W 082°48'1212.0 220 / 61025.2 6.9 42.6
2015-May-22 23:00N 44°48' W 082°48'7 7.4 360 / 171024.2 6.1 42.6
2015-May-22 22:00N 44°54' W 082°54'3310.9 340 / 181024.2 5.9 42.6
2015-May-22 19:00N 45°24' W 083°12'8 8.4 190 / 131023.5 4.6 42.6
2015-May-22 18:00N 45°24' W 083°24'1312.6 220 / 151023.5 5.4 42.6
2015-May-22 17:00N 45°24' W 083°42'4 4.2 320 / 121023.5 5.1 42.6
2015-May-22 16:00N 45°24' W 083°48'0 0.0 310 / 111023.5 4.5 42.6
2015-May-22 15:00N 45°24' W 083°48'0 0.0 340 / 131022.8 4.3 42.6
2015-May-22 14:00N 45°24' W 083°48'0 0.0 320 / 121022.5 4.0 42.6
2015-May-22 13:00N 45°24' W 083°48'0 0.0 330 / 131022.1 3.9 42.6
2015-May-22 12:00N 45°24' W 083°48'0 0.0 330 / 111021.1 4.5 42.6
2015-May-22 11:00N 45°24' W 083°48'0 0.0 320 / 111020.1 5.0 42.6
2015-May-22 10:00N 45°24' W 083°48'0 0.0 320 / 81019.4 3.8 42.6
2015-May-22 09:00N 45°24' W 083°48'2 3.9 340 / 61018.4 6.0 42.6
2015-May-22 08:23N 45°26' W 083°46'2 6.0
2015-May-22 08:00N 45°24' W 083°48'0 0.0 330 / 81018.1 5.2 42.6
2015-May-22 07:00N 45°24' W 083°48'0 0.0 320 / 121017.1 5.3 42.6
2015-May-22 06:00N 45°24' W 083°48'0 0.0 310 / 191016.0 5.9 42.6
2015-May-22 05:00N 45°24' W 083°48'0 0.0 320 / 251015.4 7.7 42.6
2015-May-22 04:00N 45°24' W 083°48'1312.7 290 / 171015.0 7.8 42.6
2015-May-22 03:00N 45°36' W 083°54'3 6.8 290 / 181014.7 6.5 42.6
2015-May-22 02:33N 45°38' W 083°57'4 7.8
2015-May-22 02:00N 45°42' W 084°00'2 3.6 310 / 151014.7 7.3 42.6
2015-May-22 01:33N 45°43' W 084°02'6 5.9
2015-May-22 00:33N 45°48' W 084°06'0 0.3
2015-May-22 00:00N 45°48' W 084°06'816.9 330 / 211013.3 9.9 42.6
2015-May-21 23:32N 45°55' W 084°12'712.7
2015-May-21 23:00N 46°00' W 084°18'0 0.0 350 / 211013.0 10.8 42.6
2015-May-21 22:00N 46°00' W 084°18'1 2.0 330 / 181012.3 12.4 42.6
2015-May-21 21:18N 45°59' W 084°17'1 4.7
2015-May-21 21:00N 46°00' W 084°18'1 3.2 330 / 201012.0 13.5 42.6
2015-May-21 20:33N 45°59' W 084°17'1 2.5
2015-May-21 20:00N 46°00' W 084°18'1 3.3 340 / 111011.3 14.4 42.6
2015-May-21 19:33N 45°59' W 084°17'1 2.6
2015-May-21 19:00N 46°00' W 084°18'4 8.8 280 / 181010.6 11.7 42.6
2015-May-21 18:33N 45°57' W 084°14'4 6.5
2015-May-21 18:00N 45°54' W 084°12'614.0 270 / 201010.6 6.7 42.6
2015-May-21 17:33N 45°50' W 084°05'4 7.5
2015-May-21 17:00N 45°48' W 084°00'613.6 290 / 231010.6 9.3 42.6
2015-May-21 16:33N 45°43' W 083°55'5 9.3
2015-May-21 16:00N 45°42' W 083°48'1312.7 320 / 141011.3 8.3 42.6
2015-May-21 15:00N 45°30' W 083°42'1010.3 240 / 101012.0 11.3 42.6
2015-May-21 14:00N 45°24' W 083°30'7 7.3 300 / 101012.7 10.4 42.6
2015-May-21 13:00N 45°18' W 083°24'0 0.0 250 / 101013.0 10.0 42.6
2015-May-21 12:00N 45°18' W 083°24'0 0.0 250 / 131013.3 8.2 42.6
2015-May-21 11:00N 45°18' W 083°24'0 0.0 240 / 131013.7 6.9 42.6
2015-May-21 10:00N 45°18' W 083°24'1010.4 240 / 151013.7 7.0 42.6
2015-May-21 09:00N 45°12' W 083°12'7 7.3 260 / 81014.3 7.0 42.6
2015-May-21 08:00N 45°06' W 083°06'1312.7 240 / 121014.7 8.6 42.6
2015-May-21 07:00N 44°54' W 083°00'6210.4 270 / 101015.4 9.1 42.6
2015-May-21 01:00N 43°54' W 082°36'7 7.4 170 / 101018.1 6.1 42.6
2015-May-21 00:00N 43°48' W 082°30'1212.0 170 / 81019.1 5.4 42.6
2015-May-20 23:00N 43°36' W 082°30'6 6.0 140 / 71019.8 4.5 42.6
2015-May-20 22:00N 43°30' W 082°30'1312.8 110 / 61020.4 4.6 42.6
2015-May-20 21:00N 43°18' W 082°24'6 6.0 070 / 101021.5 4.6 42.6
2015-May-20 20:00N 43°12' W 082°24'12 6.0 050 / 101021.5 5.6 42.6
2015-May-20 18:00N 43°00' W 082°24'   020 / 101021.8 8.3 42.6
Track history (hours):
 
Tides and Currents Weather Stations Pressure Air Temp Water Temp Dewpoint Dewpoint Depression Visibility Wind Speed Wind Dir Waves Ship Positions

Dorothy Ann

Owner: THE INTERLAKE STEAMSHIP COMPANY, Middleburg Heights, OH. More information available from US FCC via Universal Licensing System and Coast Guard Vessel Documentation Center.

Last reported at 2015-May-30 18:00 UTC. Time now 2015-May-30 18:36 UTC.
Position N 44°48' W 083°00'.

Length 215 m; draft 5.9 m.

Type: Cargo ship. MMSI: 367409260.

Wind from 330 at 24 knots

Barometer 1017.7 mb
Air temperature 8.4 ° C
Water temperature 42.6 ° C

Date/timePositionNaut miles runAvg speedWind from/ knotsBaromVisibWave heightAir tempDewpointWater temp
2015-May-30 18:00N 44°48' W 083°00'7 7.4 330 / 241017.7 8.4 42.6
2015-May-30 17:00N 44°42' W 082°54'1312.7 340 / 271016.4 10.2 42.6
2015-May-30 16:00N 44°30' W 082°48'6 6.0 340 / 181016.4 10.3 42.6
2015-May-30 15:00N 44°24' W 082°48'1312.7 020 / 141015.4 10.4 42.6
2015-May-30 14:00N 44°12' W 082°42'7 7.4 040 / 121014.7 12.7 42.6
2015-May-30 13:00N 44°06' W 082°36'1212.0 240 / 111014.0 18.9 42.6
2015-May-30 12:00N 43°54' W 082°36'1312.8 230 / 111014.0 19.7 42.6
2015-May-30 11:00N 43°42' W 082°30'1212.0 200 / 141013.7 20.4 42.6
2015-May-30 10:00N 43°30' W 082°30'6 6.0 210 / 101013.3 19.7 42.6
2015-May-30 09:00N 43°24' W 082°30'1312.8 200 / 151013.3 20.8 42.6
2015-May-30 08:00N 43°12' W 082°24'1212.0 210 / 161013.7 20.9 42.6
2015-May-30 07:00N 43°00' W 082°24'7 7.4 210 / 121014.3 21.8 42.6
2015-May-30 06:00N 42°54' W 082°30'0 0.0 180 / 101014.7 23.7 42.6
2015-May-30 05:00N 42°54' W 082°30'0 0.0 190 / 91014.7 19.2 42.6
2015-May-30 04:00N 42°54' W 082°30'0 0.0 180 / 111015.4 20.8 42.6
2015-May-30 03:00N 42°54' W 082°30'0 0.0 190 / 101016.0 21.4 42.6
2015-May-30 02:00N 42°54' W 082°30'12 6.0 180 / 81015.7 25.4 42.6
2015-May-30 00:00N 42°42' W 082°30'0 0.0 160 / 101016.4 24.5 42.6
2015-May-29 23:00N 42°42' W 082°30'0 0.0 160 / 101016.4 24.7 42.6
2015-May-29 22:00N 42°42' W 082°30'6 6.0 180 / 141017.1 24.7 42.6
2015-May-29 21:00N 42°36' W 082°30'4 4.4 200 / 81017.7 24.7 42.6
2015-May-29 20:00N 42°36' W 082°36'18 8.9 150 / 121018.2 22.3 42.6
2015-May-29 18:00N 42°24' W 082°54'7 7.5 220 / 141020.3 21.8 42.6
2015-May-29 17:00N 42°18' W 083°00'4 4.4 210 / 131020.6 22.9 42.6
2015-May-29 16:00N 42°18' W 083°06'1212.0 170 / 101020.9 20.4 42.6
2015-May-29 15:00N 42°06' W 083°06'6 6.0 190 / 101020.9 19.3 42.6
2015-May-29 14:00N 42°00' W 083°06'11 5.4 140 / 101020.8 18.6 42.6
2015-May-29 12:00N 41°54' W 082°54'9 8.9 130 / 91021.2 18.1 42.6
2015-May-29 11:00N 41°54' W 082°42'1110.8 130 / 111021.5 17.8 42.6
2015-May-29 10:00N 41°48' W 082°30'6 6.0 120 / 121021.5 17.8 42.6
2015-May-29 09:00N 41°42' W 082°30'7 7.5 120 / 141021.5 17.5 42.6
2015-May-29 08:00N 41°36' W 082°36'7 7.5 110 / 111021.5 17.4 42.6
2015-May-29 07:00N 41°30' W 082°42'0 0.0 120 / 91021.5 18.0 42.6
2015-May-29 06:00N 41°30' W 082°42'0 0.0 120 / 91021.8 17.5 42.6
2015-May-29 05:00N 41°30' W 082°42'0 0.0 120 / 81022.2 17.0 42.6
2015-May-29 04:00N 41°30' W 082°42'0 0.0 120 / 101022.9 17.1 42.6
2015-May-29 03:00N 41°30' W 082°42'0 0.0 110 / 101023.2 17.5 42.6
2015-May-29 02:00N 41°30' W 082°42'0 0.0 120 / 61023.2 16.9 42.6
2015-May-29 01:00N 41°30' W 082°42'0 0.0 100 / 61023.2 16.8 42.6
2015-May-29 00:00N 41°30' W 082°42'0 0.0 090 / 111023.2 16.9 42.6
2015-May-28 23:00N 41°30' W 082°42'0 0.0 080 / 91023.2 17.2 42.6
2015-May-28 22:00N 41°30' W 082°42'0 0.0 090 / 91023.2 17.2 42.6
2015-May-28 21:00N 41°30' W 082°42'0 0.0 080 / 101023.5 17.2 42.6
2015-May-28 20:00N 41°30' W 082°42'0 0.0 080 / 81023.9 17.2 42.6
2015-May-28 18:00N 41°30' W 082°42'6 6.0 080 / 101025.2 17.0 42.6
2015-May-28 17:00N 41°36' W 082°42'9 9.0 060 / 111025.6 19.1 42.6
2015-May-28 16:00N 41°36' W 082°30'9 9.0 090 / 111025.9 17.7 42.6
2015-May-28 15:00N 41°36' W 082°18'9 9.0 110 / 101024.9 16.8 42.6
2015-May-28 14:00N 41°36' W 082°06'1313.5 100 / 101024.5 16.2 42.6
2015-May-28 13:00N 41°36' W 081°48'7 7.5 040 / 91024.5 15.5 42.6
2015-May-28 12:00N 41°30' W 081°42'0 0.0 030 / 51023.9 17.0 42.6
2015-May-28 11:00N 41°30' W 081°42'0 0.0 080 / 41023.2 17.6 42.6
2015-May-28 10:00N 41°30' W 081°42'0 0.0 020 / 31022.5 17.6 42.6
2015-May-28 09:00N 41°30' W 081°42'0 0.0 330 / 31021.8 17.9 42.6
2015-May-28 08:00N 41°30' W 081°42'0 0.0 310 / 41021.2 19.8 42.6
2015-May-28 07:00N 41°30' W 081°42'0 0.0 260 / 51021.2 19.0 42.6
2015-May-28 06:00N 41°30' W 081°42'0 0.0 050 / 21020.1 19.3 42.6
2015-May-28 05:00N 41°30' W 081°42'0 0.0 010 / 11019.8 19.0 42.6
2015-May-28 04:00N 41°30' W 081°42'0 0.0 140 / 31018.8 18.4 42.6
2015-May-28 03:00N 41°30' W 081°42'0 0.0 190 / 71018.5 19.0 42.6
2015-May-28 02:00N 41°30' W 081°42'0 0.0 220 / 41018.1 19.2 42.6
2015-May-28 01:00N 41°30' W 081°42'0 0.0 170 / 51018.1 18.7 42.6
2015-May-28 00:00N 41°30' W 081°42'0 0.0 310 / 101017.8 19.0 42.6
2015-May-27 23:00N 41°30' W 081°42'0 0.0 160 / 61017.1 20.0 42.6
2015-May-27 21:00N 41°30' W 081°42'0 0.0 210 / 201016.1 27.7 42.6
2015-May-27 20:00N 41°30' W 081°42'0 0.0 190 / 181016.1 27.5 42.6
2015-May-27 19:00N 41°30' W 081°42'0 0.0 200 / 151016.4 27.5 42.6
2015-May-27 18:00N 41°30' W 081°42'0 0.0 200 / 161016.4 26.3 42.6
2015-May-27 17:00N 41°30' W 081°42'0 0.0 190 / 61017.8 26.9 42.6
2015-May-27 16:00N 41°30' W 081°42'0 0.0 220 / 101018.1 24.9 42.6
2015-May-27 15:00N 41°30' W 081°42'0 0.0 180 / 101017.8 25.5 42.6
2015-May-27 14:00N 41°30' W 081°42'0 0.0 190 / 121017.8 24.0 42.6
2015-May-27 13:00N 41°30' W 081°42'0 0.0 220 / 91018.1 22.4 42.6
2015-May-27 12:00N 41°30' W 081°42'0 0.0 200 / 81017.8 21.5 42.6
2015-May-27 11:00N 41°30' W 081°42'0 0.0 190 / 81017.1 21.0 42.6
2015-May-27 10:00N 41°30' W 081°42'0 0.0 180 / 51016.4 20.8 42.6
2015-May-27 09:00N 41°30' W 081°42'0 0.0 210 / 71016.1 21.3 42.6
2015-May-27 08:00N 41°30' W 081°42'0 0.0 180 / 71015.7 21.3 42.6
2015-May-27 07:00N 41°30' W 081°42'0 0.0 120 / 51016.1 21.1 42.6
2015-May-27 06:00N 41°30' W 081°42'4 4.5 190 / 141015.410.8 0.521.0 42.6
2015-May-27 05:00N 41°30' W 081°48'1110.8 190 / 191015.1 20.5 42.6
2015-May-27 04:00N 41°36' W 082°00'9 9.0 190 / 221015.1 20.5 42.6
2015-May-27 03:00N 41°36' W 082°12'9 9.0 190 / 221014.4 20.1 42.6
2015-May-27 02:00N 41°36' W 082°24'9 9.0 180 / 211014.4 19.6 42.6
2015-May-27 01:00N 41°36' W 082°36'7 7.5 200 / 231014.0 20.3 42.6
2015-May-27 00:00N 41°30' W 082°42'0 0.0 230 / 101014.4 20.8 42.6
2015-May-26 23:00N 41°30' W 082°42'0 0.0 270 / 141014.0 21.3 42.6
2015-May-26 22:00N 41°30' W 082°42'0 0.0 190 / 161013.0 29.7 42.6
2015-May-26 21:00N 41°30' W 082°42'0 0.0 150 / 111013.4 28.8 42.6
2015-May-26 20:00N 41°30' W 082°42'0 0.0 160 / 101014.4 28.2 42.6
2015-May-26 19:00N 41°30' W 082°42'0 0.0 200 / 101015.7 28.4 42.6
2015-May-26 17:00N 41°30' W 082°42'0 0.0 230 / 101017.8 26.6 42.6
2015-May-26 16:00N 41°30' W 082°42'0 0.0 210 / 61018.5 25.6 42.6
2015-May-26 15:00N 41°30' W 082°42'0 0.0 240 / 81018.8 24.2 42.6
2015-May-26 14:00N 41°30' W 082°42'0 0.0 200 / 101019.1 22.9 42.6
2015-May-26 13:00N 41°30' W 082°42'0 0.0 200 / 81019.1 23.0 42.6
2015-May-26 12:00N 41°30' W 082°42'6 6.0 200 / 61019.1 20.9 42.6
2015-May-26 11:00N 41°36' W 082°42'9 9.0 220 / 111019.1 18.7 42.6
2015-May-26 10:00N 41°36' W 082°30'1313.5 190 / 121018.5 19.3 42.6
2015-May-26 09:00N 41°36' W 082°12'9 9.0 190 / 111018.1 20.4 42.6
2015-May-26 08:00N 41°36' W 082°00'9 9.0 200 / 131018.1 20.9 42.6
2015-May-26 07:00N 41°36' W 081°48'7 7.5 220 / 161018.5 21.1 42.6
2015-May-26 06:00N 41°30' W 081°42'0 0.0 200 / 101018.8 22.7 42.6
2015-May-26 05:00N 41°30' W 081°42'0 0.0 080 / 21019.1 23.7 42.6
2015-May-26 04:00N 41°30' W 081°42'0 0.0 190 / 51018.5 24.0 42.6
2015-May-26 03:00N 41°30' W 081°42'0 0.0 220 / 51018.5 24.6 42.6
2015-May-26 02:00N 41°30' W 081°42'0 0.0 220 / 61017.8 25.8 42.6
2015-May-26 00:00N 41°30' W 081°42'0 0.0 240 / 121017.1 27.6 42.6
2015-May-25 23:00N 41°30' W 081°42'0 0.0 260 / 121016.8 27.4 42.6
2015-May-25 22:00N 41°30' W 081°42'0 0.0 200 / 201016.4 27.8 42.6
2015-May-25 21:00N 41°30' W 081°42'0 0.0 230 / 131017.1 27.2 42.6
2015-May-25 20:00N 41°30' W 081°42'0 0.0 220 / 121017.4 27.4 42.6
2015-May-25 19:00N 41°30' W 081°42'0 0.0 230 / 81017.4 27.9 42.6
2015-May-25 18:00N 41°30' W 081°42'0 0.0 230 / 121017.8 27.4 42.6
2015-May-25 17:00N 41°30' W 081°42'0 0.0 220 / 141018.1 27.0 42.6
2015-May-25 16:00N 41°30' W 081°42'0 0.0 190 / 151018.1 24.5 42.6
2015-May-25 15:00N 41°30' W 081°42'0 0.0 210 / 121018.8 24.4 42.6
2015-May-25 14:00N 41°30' W 081°42'0 0.0 200 / 121019.1 25.0 42.6
2015-May-25 13:00N 41°30' W 081°42'0 0.0 200 / 111019.5 22.9 42.6
2015-May-25 12:00N 41°30' W 081°42'0 0.0 180 / 131019.1 21.8 42.6
2015-May-25 11:00N 41°30' W 081°42'0 0.0 140 / 101018.8 19.8 42.6
2015-May-25 10:00N 41°30' W 081°42'0 0.0 170 / 91018.8 19.3 42.6
2015-May-25 09:00N 41°30' W 081°42'0 0.0 160 / 101018.5 19.6 42.6
2015-May-25 08:00N 41°30' W 081°42'0 0.0 150 / 111018.8 20.1 42.6
2015-May-25 07:00N 41°30' W 081°42'0 0.0 150 / 31019.1 19.9 42.6
2015-May-25 06:00N 41°30' W 081°42'0 0.0 140 / 31019.8 21.0 42.6
2015-May-25 05:00N 41°30' W 081°42'0 0.0 130 / 71020.5 20.7 42.6
2015-May-25 04:00N 41°30' W 081°42'0 0.0 160 / 71020.5 22.3 42.6
2015-May-25 03:00N 41°30' W 081°42'0 0.0 150 / 51020.8 22.0 42.6
2015-May-25 02:00N 41°30' W 081°42'0 0.0 160 / 51020.8 23.2 42.6
2015-May-25 01:00N 41°30' W 081°42'0 0.0 140 / 61020.5 24.6 42.6
2015-May-25 00:00N 41°30' W 081°42'0 0.0 130 / 61021.2 25.7 42.6
2015-May-24 23:00N 41°30' W 081°42'0 0.0 120 / 61021.5 26.0 42.6
2015-May-24 22:00N 41°30' W 081°42'0 0.0 140 / 51022.2 26.1 42.6
2015-May-24 21:00N 41°30' W 081°42'0 0.0 160 / 91022.5 26.5 42.6
2015-May-24 20:00N 41°30' W 081°42'0 0.0 190 / 91022.9 27.3 42.6
2015-May-24 19:00N 41°30' W 081°42'0 0.0 220 / 61023.5 27.2 42.6
2015-May-24 18:00N 41°30' W 081°42'0 0.0 200 / 81024.2 27.2 42.6
2015-May-24 17:00N 41°30' W 081°42'0 0.0 180 / 81024.9 26.2 42.6
2015-May-24 16:00N 41°30' W 081°42'0 0.0 240 / 71025.2 25.6 42.6
2015-May-24 15:00N 41°30' W 081°42'0 0.0 210 / 101025.6 24.2 42.6
2015-May-24 14:00N 41°30' W 081°42'0 0.0 220 / 101025.9 23.2 42.6
2015-May-24 13:00N 41°30' W 081°42'0 0.0 190 / 91025.9 20.8 42.6
2015-May-24 12:00N 41°30' W 081°42'0 0.0 140 / 91026.2 16.6 42.6
2015-May-24 11:00N 41°30' W 081°42'0 0.0 150 / 111026.2 14.6 42.6
2015-May-24 10:00N 41°30' W 081°42'0 0.0 140 / 91025.9 14.4 42.6
2015-May-24 09:00N 41°30' W 081°42'0 0.0 150 / 101025.2 14.5 42.6
2015-May-24 08:00N 41°30' W 081°42'0 0.0 160 / 91025.2 14.8 42.6
2015-May-24 06:00N 41°30' W 081°42'1110.8 150 / 131025.2 16.0 42.6
2015-May-24 05:00N 41°36' W 081°54'1110.8 170 / 121025.6 18.0 42.6
2015-May-24 04:00N 41°42' W 082°06'34 8.4 140 / 111025.6 16.1 42.6
2015-May-24 00:00N 41°54' W 082°48'9 8.9 130 / 121025.2 17.0 42.6
2015-May-23 23:00N 41°54' W 083°00'7 7.5 130 / 151025.2 18.8 42.6
2015-May-23 22:00N 42°00' W 083°06'1212.0 130 / 141025.9 16.0 42.6
2015-May-23 21:00N 42°12' W 083°06'6 6.0 180 / 131026.4 20.4 42.6
2015-May-23 20:00N 42°18' W 083°06'0 0.0 210 / 91027.4 20.4 42.6
2015-May-23 19:00N 42°18' W 083°06'0 0.0 200 / 111027.7 19.5 42.6
2015-May-23 18:00N 42°18' W 083°06'0 0.0 220 / 91028.0 19.5 42.6
2015-May-23 17:00N 42°18' W 083°06'0 0.0 220 / 121028.7 18.1 42.6
2015-May-23 16:00N 42°18' W 083°06'1110.7 200 / 61029.4 17.6 42.6
2015-May-23 15:00N 42°24' W 082°54'7 7.5 250 / 91029.4 16.5 42.6
2015-May-23 14:00N 42°30' W 082°48'18 8.9 200 / 61029.7 11.0 42.6
2015-May-23 12:00N 42°42' W 082°30'1212.0 180 / 61029.6 7.6 42.6
2015-May-23 11:00N 42°54' W 082°30'7 7.4 180 / 51028.9 4.4 42.6
2015-May-23 10:00N 43°00' W 082°24'1212.0 200 / 81028.2 5.1 42.6
2015-May-23 09:00N 43°12' W 082°24'1212.0 210 / 71027.9 7.3 42.6
2015-May-23 08:00N 43°24' W 082°24'74 9.3 210 / 41027.2 6.4 42.6
2015-May-23 00:00N 44°36' W 082°48'1212.0 220 / 61025.2 6.9 42.6
2015-May-22 23:00N 44°48' W 082°48'7 7.4 360 / 171024.2 6.1 42.6
2015-May-22 22:00N 44°54' W 082°54'3310.9 340 / 181024.2 5.9 42.6
2015-May-22 19:00N 45°24' W 083°12'8 8.4 190 / 131023.5 4.6 42.6
2015-May-22 18:00N 45°24' W 083°24'1312.6 220 / 151023.5 5.4 42.6
2015-May-22 17:00N 45°24' W 083°42'4 4.2 320 / 121023.5 5.1 42.6
2015-May-22 16:00N 45°24' W 083°48'0 0.0 310 / 111023.5 4.5 42.6
2015-May-22 15:00N 45°24' W 083°48'0 0.0 340 / 131022.8 4.3 42.6
2015-May-22 14:00N 45°24' W 083°48'0 0.0 320 / 121022.5 4.0 42.6
2015-May-22 13:00N 45°24' W 083°48'0 0.0 330 / 131022.1 3.9 42.6
2015-May-22 12:00N 45°24' W 083°48'0 0.0 330 / 111021.1 4.5 42.6
2015-May-22 11:00N 45°24' W 083°48'0 0.0 320 / 111020.1 5.0 42.6
2015-May-22 10:00N 45°24' W 083°48'0 0.0 320 / 81019.4 3.8 42.6
2015-May-22 09:00N 45°24' W 083°48'2 3.9 340 / 61018.4 6.0 42.6
2015-May-22 08:23N 45°26' W 083°46'2 6.0
2015-May-22 08:00N 45°24' W 083°48'0 0.0 330 / 81018.1 5.2 42.6
2015-May-22 07:00N 45°24' W 083°48'0 0.0 320 / 121017.1 5.3 42.6
2015-May-22 06:00N 45°24' W 083°48'0 0.0 310 / 191016.0 5.9 42.6
2015-May-22 05:00N 45°24' W 083°48'0 0.0 320 / 251015.4 7.7 42.6
2015-May-22 04:00N 45°24' W 083°48'1312.7 290 / 171015.0 7.8 42.6
2015-May-22 03:00N 45°36' W 083°54'3 6.8 290 / 181014.7 6.5 42.6
2015-May-22 02:33N 45°38' W 083°57'4 7.8
2015-May-22 02:00N 45°42' W 084°00'2 3.6 310 / 151014.7 7.3 42.6
2015-May-22 01:33N 45°43' W 084°02'6 5.9
2015-May-22 00:33N 45°48' W 084°06'0 0.3
2015-May-22 00:00N 45°48' W 084°06'816.9 330 / 211013.3 9.9 42.6
2015-May-21 23:32N 45°55' W 084°12'712.7
2015-May-21 23:00N 46°00' W 084°18'0 0.0 350 / 211013.0 10.8 42.6
2015-May-21 22:00N 46°00' W 084°18'1 2.0 330 / 181012.3 12.4 42.6
2015-May-21 21:18N 45°59' W 084°17'1 4.7
2015-May-21 21:00N 46°00' W 084°18'1 3.2 330 / 201012.0 13.5 42.6
2015-May-21 20:33N 45°59' W 084°17'1 2.5
2015-May-21 20:00N 46°00' W 084°18'1 3.3 340 / 111011.3 14.4 42.6
2015-May-21 19:33N 45°59' W 084°17'1 2.6
2015-May-21 19:00N 46°00' W 084°18'4 8.8 280 / 181010.6 11.7 42.6
2015-May-21 18:33N 45°57' W 084°14'4 6.5
2015-May-21 18:00N 45°54' W 084°12'614.0 270 / 201010.6 6.7 42.6
2015-May-21 17:33N 45°50' W 084°05'4 7.5
2015-May-21 17:00N 45°48' W 084°00'613.6 290 / 231010.6 9.3 42.6
2015-May-21 16:33N 45°43' W 083°55'5 9.3
2015-May-21 16:00N 45°42' W 083°48'1312.7 320 / 141011.3 8.3 42.6
2015-May-21 15:00N 45°30' W 083°42'1010.3 240 / 101012.0 11.3 42.6
2015-May-21 14:00N 45°24' W 083°30'7 7.3 300 / 101012.7 10.4 42.6
2015-May-21 13:00N 45°18' W 083°24'0 0.0 250 / 101013.0 10.0 42.6
2015-May-21 12:00N 45°18' W 083°24'0 0.0 250 / 131013.3 8.2 42.6
2015-May-21 11:00N 45°18' W 083°24'0 0.0 240 / 131013.7 6.9 42.6
2015-May-21 10:00N 45°18' W 083°24'1010.4 240 / 151013.7 7.0 42.6
2015-May-21 09:00N 45°12' W 083°12'7 7.3 260 / 81014.3 7.0 42.6
2015-May-21 08:00N 45°06' W 083°06'1312.7 240 / 121014.7 8.6 42.6
2015-May-21 07:00N 44°54' W 083°00'6210.4 270 / 101015.4 9.1 42.6
2015-May-21 01:00N 43°54' W 082°36'7 7.4 170 / 101018.1 6.1 42.6
2015-May-21 00:00N 43°48' W 082°30'1212.0 170 / 81019.1 5.4 42.6
2015-May-20 23:00N 43°36' W 082°30'6 6.0 140 / 71019.8 4.5 42.6
2015-May-20 22:00N 43°30' W 082°30'1312.8 110 / 61020.4 4.6 42.6
2015-May-20 21:00N 43°18' W 082°24'6 6.0 070 / 101021.5 4.6 42.6
2015-May-20 20:00N 43°12' W 082°24'12 6.0 050 / 101021.5 5.6 42.6
2015-May-20 18:00N 43°00' W 082°24'   020 / 101021.8 8.3 42.6

Dump ship's entire track history